Time;durP1;ratioP1;P1;durP2;ratioP2;P2;SDS_P1;SDS_P2;PMS_P1;PMS_P2;Temp;Humidity;BMP_temperature;BMP_pressure;BME280_temperature;BME280_humidity;BME280_pressure;Samples;Min_cycle;Max_cycle;Signal;HPM_P1;HPM_P2
2023/04/04 00:00:50;;;;;;;2.47;1.50;;;;;;;;;;7389856;19;20003;-70
2023/04/04 00:03:15;;;;;;;4.55;1.70;;;;;;;;;;7390360;19;20035;-71
2023/04/04 00:05:41;;;;;;;5.25;1.60;;;;;;;;;;7389493;19;20483;-70
2023/04/04 00:08:06;;;;;;;3.35;1.50;;;;;;;;;;7389495;19;20026;-70
2023/04/04 00:10:32;;;;;;;5.47;1.80;;;;;;;;;;7389197;19;20468;-71
2023/04/04 00:12:57;;;;;;;5.50;2.00;;;;;;;;;;7387789;19;20345;-70
2023/04/04 00:15:23;;;;;;;8.40;1.98;;;;;;;;;;7387962;19;19999;-69
2023/04/04 00:17:48;;;;;;;5.07;1.90;;;;;;;;;;7389461;19;20013;-69
2023/04/04 00:20:13;;;;;;;2.75;1.60;;;;;;;;;;7387140;19;20003;-70
2023/04/04 00:22:40;;;;;;;2.60;1.38;;;;;;;;;;7387316;19;20006;-70
2023/04/04 00:25:05;;;;;;;4.85;1.98;;;;;;;;;;7389145;19;19998;-71
2023/04/04 00:27:30;;;;;;;5.90;1.58;;;;;;;;;;7393295;19;20325;-70
2023/04/04 00:29:56;;;;;;;3.25;1.55;;;;;;;;;;7390339;19;20058;-69
2023/04/04 00:32:21;;;;;;;4.43;1.70;;;;;;;;;;7392633;19;20116;-71
2023/04/04 00:34:52;;;;;;;7.40;1.80;;;;;;;;;;7389851;19;20632;-70
2023/04/04 00:37:17;;;;;;;2.22;1.45;;;;;;;;;;7389337;19;20353;-70
2023/04/04 00:39:43;;;;;;;4.22;1.90;;;;;;;;;;7385564;19;20003;-70
2023/04/04 00:42:08;;;;;;;4.80;1.73;;;;;;;;;;7388386;19;20011;-70
2023/04/04 00:44:35;;;;;;;2.72;1.60;;;;;;;;;;7388583;19;20006;-70
2023/04/04 00:47:01;;;;;;;3.83;1.80;;;;;;;;;;7387229;19;20006;-70
2023/04/04 00:49:26;;;;;;;5.10;1.73;;;;;;;;;;7385502;19;20002;-70
2023/04/04 00:51:53;;;;;;;3.33;1.92;;;;;;;;;;7390212;19;20005;-71
2023/04/04 00:54:18;;;;;;;4.45;2.03;;;;;;;;;;7388328;19;20018;-71
2023/04/04 00:56:44;;;;;;;6.30;2.30;;;;;;;;;;7387300;19;20111;-70
2023/04/04 00:59:09;;;;;;;4.20;1.88;;;;;;;;;;7387687;19;20026;-71
2023/04/04 01:01:35;;;;;;;5.57;1.73;;;;;;;;;;7388136;19;20003;-71
2023/04/04 01:04:02;;;;;;;4.63;1.60;;;;;;;;;;7386854;19;19995;-70
2023/04/04 01:06:29;;;;;;;4.25;1.92;;;;;;;;;;7388309;19;20003;-69
2023/04/04 01:08:54;;;;;;;5.53;1.52;;;;;;;;;;7386067;19;20002;-70
2023/04/04 01:11:20;;;;;;;3.55;1.80;;;;;;;;;;7387605;19;19999;-71
2023/04/04 01:13:46;;;;;;;3.38;1.90;;;;;;;;;;7387478;19;19994;-70
2023/04/04 01:16:12;;;;;;;3.50;1.70;;;;;;;;;;7386464;19;20013;-71
2023/04/04 01:18:40;;;;;;;2.65;1.52;;;;;;;;;;7385329;19;20002;-70
2023/04/04 01:21:09;;;;;;;5.90;2.42;;;;;;;;;;7385613;19;20066;-70
2023/04/04 01:24:03;;;;;;;3.30;1.60;;;;;;;;;;7387820;19;20003;-71
2023/04/04 01:26:30;;;;;;;2.67;1.70;;;;;;;;;;7388061;19;20360;-71
2023/04/04 01:28:56;;;;;;;5.38;2.00;;;;;;;;;;7391291;19;20471;-70
2023/04/04 01:31:56;;;;;;;1.80;1.38;;;;;;;;;;7387311;19;20324;-70
2023/04/04 01:34:33;;;;;;;4.90;1.67;;;;;;;;;;7386704;19;19995;-69
2023/04/04 01:37:12;;;;;;;5.38;2.13;;;;;;;;;;7387753;19;20003;-71
2023/04/04 01:39:48;;;;;;;4.50;1.80;;;;;;;;;;7391027;19;20003;-70
2023/04/04 01:42:14;;;;;;;2.63;1.60;;;;;;;;;;7396741;19;20016;-70
2023/04/04 01:44:40;;;;;;;2.97;1.88;;;;;;;;;;7389734;19;20002;-71
2023/04/04 01:47:07;;;;;;;6.47;2.22;;;;;;;;;;7394651;19;19999;-70
2023/04/04 01:49:33;;;;;;;3.53;1.77;;;;;;;;;;7394121;19;20472;-70
2023/04/04 01:51:59;;;;;;;5.63;2.30;;;;;;;;;;7398310;19;19998;-71
2023/04/04 01:54:27;;;;;;;2.95;1.90;;;;;;;;;;7393790;19;20419;-71
2023/04/04 01:56:52;;;;;;;3.97;1.90;;;;;;;;;;7394518;19;19999;-70
2023/04/04 01:59:17;;;;;;;4.28;1.73;;;;;;;;;;7399415;19;20002;-70
2023/04/04 02:01:43;;;;;;;3.58;1.50;;;;;;;;;;7394775;19;20468;-70
2023/04/04 02:04:11;;;;;;;5.38;2.28;;;;;;;;;;7391681;19;20010;-70
2023/04/04 02:06:37;;;;;;;4.15;2.00;;;;;;;;;;7393589;19;20549;-69
2023/04/04 02:09:03;;;;;;;8.43;2.10;;;;;;;;;;7392267;19;20015;-70
2023/04/04 02:11:28;;;;;;;6.30;1.88;;;;;;;;;;7393211;19;20389;-71
2023/04/04 02:13:53;;;;;;;4.43;2.30;;;;;;;;;;7392566;19;20024;-69
2023/04/04 02:16:19;;;;;;;3.67;1.65;;;;;;;;;;7391975;19;20361;-70
2023/04/04 02:18:44;;;;;;;3.17;1.88;;;;;;;;;;7390889;19;20043;-69
2023/04/04 02:21:10;;;;;;;4.80;2.17;;;;;;;;;;7390773;19;20019;-71
2023/04/04 02:23:35;;;;;;;5.40;2.00;;;;;;;;;;7393400;19;20003;-69
2023/04/04 02:26:01;;;;;;;6.18;2.13;;;;;;;;;;7393240;19;20010;-71
2023/04/04 02:28:30;;;;;;;4.22;2.15;;;;;;;;;;7392719;19;20045;-71
2023/04/04 02:31:00;;;;;;;3.42;1.75;;;;;;;;;;7392915;19;20006;-71
2023/04/04 02:33:26;;;;;;;3.83;2.20;;;;;;;;;;7391657;19;20018;-70
2023/04/04 02:35:51;;;;;;;5.40;2.42;;;;;;;;;;7396322;19;20006;-71
2023/04/04 02:38:16;;;;;;;4.88;2.35;;;;;;;;;;7395085;19;19998;-70
2023/04/04 02:40:44;;;;;;;9.00;1.95;;;;;;;;;;7395755;19;20019;-71
2023/04/04 02:43:09;;;;;;;7.32;2.42;;;;;;;;;;7392070;19;20006;-69
2023/04/04 02:45:35;;;;;;;6.18;2.40;;;;;;;;;;7392169;19;19995;-69
2023/04/04 02:48:00;;;;;;;7.22;2.53;;;;;;;;;;7392054;19;20002;-69
2023/04/04 02:50:25;;;;;;;6.75;2.65;;;;;;;;;;7389904;19;19997;-71
2023/04/04 02:52:53;;;;;;;5.88;2.47;;;;;;;;;;7392065;19;20346;-69
2023/04/04 02:55:18;;;;;;;5.70;2.50;;;;;;;;;;7390029;19;20014;-71
2023/04/04 02:57:49;;;;;;;4.70;2.40;;;;;;;;;;7389340;19;20472;-71
2023/04/04 03:00:15;;;;;;;7.65;2.95;;;;;;;;;;7391751;19;20070;-69
2023/04/04 03:02:40;;;;;;;7.43;2.60;;;;;;;;;;7391783;19;20015;-70
2023/04/04 03:05:06;;;;;;;5.80;2.60;;;;;;;;;;7391546;19;20010;-69
2023/04/04 03:07:31;;;;;;;4.82;2.58;;;;;;;;;;7391748;19;20029;-70
2023/04/04 03:09:57;;;;;;;4.63;2.50;;;;;;;;;;7389403;19;20005;-71
2023/04/04 03:12:22;;;;;;;5.00;2.33;;;;;;;;;;7390837;19;20337;-70
2023/04/04 03:14:48;;;;;;;5.15;2.60;;;;;;;;;;7388093;19;20123;-70
2023/04/04 03:17:14;;;;;;;5.53;3.03;;;;;;;;;;7389977;19;19994;-70
2023/04/04 03:19:39;;;;;;;5.03;2.30;;;;;;;;;;7389808;19;20009;-71
2023/04/04 03:22:05;;;;;;;5.07;2.85;;;;;;;;;;7390656;19;20033;-69
2023/04/04 03:24:31;;;;;;;5.80;2.92;;;;;;;;;;7391109;19;19990;-70
2023/04/04 03:26:59;;;;;;;7.57;2.85;;;;;;;;;;7389724;19;20352;-70
2023/04/04 03:29:25;;;;;;;6.85;2.83;;;;;;;;;;7392843;19;20003;-69
2023/04/04 03:31:50;;;;;;;3.85;2.47;;;;;;;;;;7390686;19;20015;-70
2023/04/04 03:34:15;;;;;;;5.88;2.55;;;;;;;;;;7390093;19;19991;-69
2023/04/04 03:36:41;;;;;;;5.97;2.25;;;;;;;;;;7390887;19;20467;-70
2023/04/04 03:39:06;;;;;;;4.50;2.38;;;;;;;;;;7392665;19;20458;-70
2023/04/04 03:41:31;;;;;;;6.45;2.45;;;;;;;;;;7390512;19;20714;-71
2023/04/04 03:43:57;;;;;;;6.32;2.80;;;;;;;;;;7390733;19;20036;-70
2023/04/04 03:46:23;;;;;;;4.82;2.70;;;;;;;;;;7392886;19;19999;-71
2023/04/04 03:48:48;;;;;;;3.78;1.98;;;;;;;;;;7389935;19;20002;-70
2023/04/04 03:51:13;;;;;;;4.63;2.67;;;;;;;;;;7390127;19;20014;-70
2023/04/04 03:53:39;;;;;;;5.65;2.67;;;;;;;;;;7390445;19;20337;-70
2023/04/04 03:56:04;;;;;;;4.43;2.65;;;;;;;;;;7390861;19;20642;-71
2023/04/04 03:58:29;;;;;;;6.65;3.17;;;;;;;;;;7390133;19;20424;-70
2023/04/04 04:00:55;;;;;;;6.40;2.72;;;;;;;;;;7390255;19;19990;-70
2023/04/04 04:03:21;;;;;;;7.72;2.60;;;;;;;;;;7390387;19;19997;-71
2023/04/04 04:05:46;;;;;;;5.60;2.80;;;;;;;;;;7391017;19;19994;-69
2023/04/04 04:08:12;;;;;;;5.78;3.38;;;;;;;;;;7388405;19;20010;-71
2023/04/04 04:10:37;;;;;;;5.13;2.55;;;;;;;;;;7391273;19;20017;-71
2023/04/04 04:13:03;;;;;;;4.68;2.70;;;;;;;;;;7392519;19;19999;-72
2023/04/04 04:15:28;;;;;;;7.63;2.90;;;;;;;;;;7393738;19;20377;-69
2023/04/04 04:17:53;;;;;;;4.90;2.75;;;;;;;;;;7397731;19;20004;-70
2023/04/04 04:20:19;;;;;;;3.70;2.38;;;;;;;;;;7392211;19;20444;-69
2023/04/04 04:22:46;;;;;;;5.50;3.47;;;;;;;;;;7391494;19;20361;-70
2023/04/04 04:25:11;;;;;;;5.10;2.70;;;;;;;;;;7390083;19;19991;-70
2023/04/04 04:27:37;;;;;;;5.00;2.10;;;;;;;;;;7389428;19;20012;-69
2023/04/04 04:30:03;;;;;;;5.30;2.67;;;;;;;;;;7387254;19;19994;-70
2023/04/04 04:32:28;;;;;;;5.30;2.83;;;;;;;;;;7385842;19;20014;-70
2023/04/04 04:34:54;;;;;;;4.18;2.47;;;;;;;;;;7388670;19;20523;-71
2023/04/04 04:37:19;;;;;;;4.25;2.60;;;;;;;;;;7391897;19;20004;-70
2023/04/04 04:39:45;;;;;;;3.30;1.85;;;;;;;;;;7389876;19;20408;-69
2023/04/04 04:42:10;;;;;;;8.07;3.53;;;;;;;;;;7387777;19;19994;-70
2023/04/04 04:44:35;;;;;;;5.72;2.90;;;;;;;;;;7390590;19;19995;-71
2023/04/04 04:47:02;;;;;;;4.80;2.88;;;;;;;;;;7392135;19;19999;-70
2023/04/04 04:49:27;;;;;;;7.80;2.92;;;;;;;;;;7387763;19;20002;-70
2023/04/04 04:51:53;;;;;;;6.30;2.75;;;;;;;;;;7390875;19;19999;-69
2023/04/04 04:54:18;;;;;;;5.15;3.03;;;;;;;;;;7388813;19;19990;-70
2023/04/04 04:56:44;;;;;;;6.38;3.20;;;;;;;;;;7389914;19;20117;-71
2023/04/04 04:59:10;;;;;;;6.55;2.80;;;;;;;;;;7385094;19;20342;-70
2023/04/04 05:01:35;;;;;;;7.28;3.20;;;;;;;;;;7385637;19;19995;-69
2023/04/04 05:04:01;;;;;;;5.55;2.95;;;;;;;;;;7384116;19;20483;-70
2023/04/04 05:06:26;;;;;;;9.38;3.70;;;;;;;;;;7389524;19;20002;-69
2023/04/04 05:08:51;;;;;;;5.93;2.80;;;;;;;;;;7390502;19;20019;-69
2023/04/04 05:11:16;;;;;;;6.03;2.85;;;;;;;;;;7388628;19;19998;-70
2023/04/04 05:13:42;;;;;;;5.90;3.08;;;;;;;;;;7387031;19;20336;-71
2023/04/04 05:16:07;;;;;;;5.18;2.80;;;;;;;;;;7388491;19;20011;-69
2023/04/04 05:18:32;;;;;;;6.57;3.13;;;;;;;;;;7388970;19;20013;-69
2023/04/04 05:20:58;;;;;;;5.45;2.95;;;;;;;;;;7389976;19;20002;-69
2023/04/04 05:23:23;;;;;;;5.78;2.90;;;;;;;;;;7390560;19;20006;-70
2023/04/04 05:25:50;;;;;;;6.28;2.88;;;;;;;;;;7387418;19;20002;-72
2023/04/04 05:28:16;;;;;;;5.13;2.63;;;;;;;;;;7389656;19;19998;-70
2023/04/04 05:30:41;;;;;;;7.32;2.70;;;;;;;;;;7386962;19;20015;-71
2023/04/04 05:33:06;;;;;;;8.57;3.03;;;;;;;;;;7388398;19;19994;-71
2023/04/04 05:35:32;;;;;;;4.22;2.40;;;;;;;;;;7386212;19;20389;-69
2023/04/04 05:37:57;;;;;;;5.20;2.60;;;;;;;;;;7390657;19;19994;-71
2023/04/04 05:40:22;;;;;;;6.80;2.72;;;;;;;;;;7385165;19;19991;-71
2023/04/04 05:42:54;;;;;;;6.20;2.65;;;;;;;;;;7387366;19;19997;-72
2023/04/04 05:45:19;;;;;;;4.85;2.30;;;;;;;;;;7390809;19;20003;-71
2023/04/04 05:47:45;;;;;;;6.50;2.58;;;;;;;;;;7390550;19;19991;-70
2023/04/04 05:50:10;;;;;;;4.35;2.55;;;;;;;;;;7387461;19;20039;-71
2023/04/04 05:52:35;;;;;;;4.13;2.22;;;;;;;;;;7387005;19;20026;-72
2023/04/04 05:55:01;;;;;;;2.58;1.85;;;;;;;;;;7389527;19;19998;-71
2023/04/04 05:57:26;;;;;;;7.03;2.58;;;;;;;;;;7389333;19;20010;-70
2023/04/04 05:59:51;;;;;;;5.07;2.28;;;;;;;;;;7388549;19;20463;-71
2023/04/04 06:02:17;;;;;;;9.93;3.25;;;;;;;;;;7388851;19;19990;-71
2023/04/04 06:04:44;;;;;;;3.08;1.92;;;;;;;;;;7385787;19;20075;-71
2023/04/04 06:07:09;;;;;;;4.80;2.78;;;;;;;;;;7385424;19;20480;-70
2023/04/04 06:09:35;;;;;;;6.78;2.80;;;;;;;;;;7387268;19;20013;-69
2023/04/04 06:12:00;;;;;;;5.35;2.67;;;;;;;;;;7389719;19;20134;-71
2023/04/04 06:14:26;;;;;;;4.70;2.70;;;;;;;;;;7388837;19;20002;-72
2023/04/04 06:16:51;;;;;;;7.78;2.63;;;;;;;;;;7386634;19;20002;-71
2023/04/04 06:19:16;;;;;;;6.07;2.53;;;;;;;;;;7387312;19;20019;-69
2023/04/04 06:21:42;;;;;;;7.13;2.30;;;;;;;;;;7389543;19;20002;-71
2023/04/04 06:24:07;;;;;;;4.80;2.28;;;;;;;;;;7391123;19;20010;-71
2023/04/04 06:26:32;;;;;;;4.38;2.20;;;;;;;;;;7385823;19;20003;-71
2023/04/04 06:28:58;;;;;;;4.80;2.47;;;;;;;;;;7385192;19;20006;-69
2023/04/04 06:31:23;;;;;;;3.42;1.75;;;;;;;;;;7391301;19;20003;-70
2023/04/04 06:33:48;;;;;;;5.18;2.65;;;;;;;;;;7394576;19;20472;-70
2023/04/04 06:36:14;;;;;;;6.00;2.00;;;;;;;;;;7398225;19;20082;-71
2023/04/04 06:38:39;;;;;;;7.50;2.40;;;;;;;;;;7392747;19;20448;-71
2023/04/04 06:41:04;;;;;;;5.15;2.88;;;;;;;;;;7398230;19;20456;-71
2023/04/04 06:43:30;;;;;;;4.68;2.20;;;;;;;;;;7396967;19;20002;-71
2023/04/04 06:45:55;;;;;;;4.55;2.30;;;;;;;;;;7396125;19;19998;-71
2023/04/04 06:48:20;;;;;;;3.45;2.05;;;;;;;;;;7392667;19;20034;-71
2023/04/04 06:50:46;;;;;;;5.45;2.50;;;;;;;;;;7393067;19;20353;-70
2023/04/04 06:53:12;;;;;;;6.00;2.22;;;;;;;;;;7396077;19;20349;-68
2023/04/04 06:55:37;;;;;;;5.15;1.52;;;;;;;;;;7393629;19;20473;-69
2023/04/04 06:58:02;;;;;;;4.40;2.20;;;;;;;;;;7393416;19;20342;-70
2023/04/04 07:00:28;;;;;;;4.18;2.10;;;;;;;;;;7391625;19;20373;-72
2023/04/04 07:02:58;;;;;;;4.68;2.25;;;;;;;;;;7394588;19;20010;-70
2023/04/04 07:05:23;;;;;;;5.28;2.50;;;;;;;;;;7392451;19;20468;-71
2023/04/04 07:07:53;;;;;;;5.45;2.33;;;;;;;;;;7394916;19;20026;-70
2023/04/04 07:10:19;;;;;;;4.85;2.25;;;;;;;;;;7392222;19;20005;-71
2023/04/04 07:12:44;;;;;;;3.70;1.95;;;;;;;;;;7392880;19;20007;-71
2023/04/04 07:15:10;;;;;;;4.28;1.80;;;;;;;;;;7391845;19;20029;-71
2023/04/04 07:17:39;;;;;;;4.55;1.83;;;;;;;;;;7394833;19;20080;-71
2023/04/04 07:20:06;;;;;;;3.45;1.90;;;;;;;;;;7391004;19;20002;-70
2023/04/04 07:22:31;;;;;;;3.72;1.90;;;;;;;;;;7391953;19;20054;-70
2023/04/04 07:24:57;;;;;;;4.70;1.58;;;;;;;;;;7392725;19;20019;-71
2023/04/04 07:27:22;;;;;;;8.52;1.65;;;;;;;;;;7393456;19;20002;-70
2023/04/04 07:29:47;;;;;;;5.50;2.00;;;;;;;;;;7393519;19;20007;-71
2023/04/04 07:32:13;;;;;;;2.90;1.45;;;;;;;;;;7395348;19;20014;-71
2023/04/04 07:34:38;;;;;;;6.90;1.90;;;;;;;;;;7391102;19;20002;-70
2023/04/04 07:37:03;;;;;;;4.95;2.00;;;;;;;;;;7393335;19;20009;-70
2023/04/04 07:39:29;;;;;;;5.63;2.08;;;;;;;;;;7393622;19;20010;-71
2023/04/04 07:41:54;;;;;;;4.28;2.08;;;;;;;;;;7393257;19;20006;-71
2023/04/04 07:44:19;;;;;;;3.13;1.75;;;;;;;;;;7392106;19;19999;-69
2023/04/04 07:46:45;;;;;;;3.38;1.50;;;;;;;;;;7392697;19;19999;-70
2023/04/04 07:49:11;;;;;;;4.22;2.35;;;;;;;;;;7391178;19;19999;-71
2023/04/04 07:51:36;;;;;;;3.60;2.05;;;;;;;;;;7393158;19;19994;-70
2023/04/04 07:54:02;;;;;;;2.53;1.80;;;;;;;;;;7393422;19;20486;-70
2023/04/04 07:56:28;;;;;;;4.60;2.15;;;;;;;;;;7390571;19;20002;-70
2023/04/04 07:58:53;;;;;;;4.28;1.73;;;;;;;;;;7391245;19;20010;-71
2023/04/04 08:01:18;;;;;;;3.20;1.60;;;;;;;;;;7391925;19;20006;-72
2023/04/04 08:03:48;;;;;;;4.38;1.67;;;;;;;;;;7386077;19;20017;-70
2023/04/04 08:06:14;;;;;;;2.78;1.83;;;;;;;;;;7393723;19;20027;-71
2023/04/04 08:08:40;;;;;;;7.03;1.85;;;;;;;;;;7390173;19;19995;-71
2023/04/04 08:11:06;;;;;;;4.80;1.60;;;;;;;;;;7390545;19;20090;-71
2023/04/04 08:13:31;;;;;;;3.92;1.65;;;;;;;;;;7392294;19;20351;-72
2023/04/04 08:15:56;;;;;;;4.05;2.00;;;;;;;;;;7391082;19;20080;-70
2023/04/04 08:18:22;;;;;;;2.72;1.65;;;;;;;;;;7389603;19;20404;-72
2023/04/04 08:20:47;;;;;;;3.28;1.67;;;;;;;;;;7390105;19;20070;-72
2023/04/04 08:23:12;;;;;;;2.80;1.70;;;;;;;;;;7390112;19;20003;-70
2023/04/04 08:25:38;;;;;;;5.70;1.98;;;;;;;;;;7392189;19;20375;-66
2023/04/04 08:28:04;;;;;;;4.13;2.00;;;;;;;;;;7394682;19;20019;-66
2023/04/04 08:30:29;;;;;;;5.20;1.63;;;;;;;;;;7387415;19;20002;-69
2023/04/04 08:32:55;;;;;;;4.00;1.60;;;;;;;;;;7390652;19;20532;-70
2023/04/04 08:35:20;;;;;;;6.85;1.90;;;;;;;;;;7384323;19;20002;-69
2023/04/04 08:37:46;;;;;;;5.25;2.22;;;;;;;;;;7392385;19;20015;-70
2023/04/04 08:40:11;;;;;;;2.75;1.75;;;;;;;;;;7390569;19;19998;-69
2023/04/04 08:42:39;;;;;;;2.08;1.50;;;;;;;;;;7390254;19;19999;-69
2023/04/04 08:45:08;;;;;;;5.18;2.00;;;;;;;;;;7391297;19;20460;-68
2023/04/04 08:47:35;;;;;;;2.85;1.88;;;;;;;;;;7391396;19;19994;-69
2023/04/04 08:50:04;;;;;;;2.60;1.27;;;;;;;;;;7390690;19;20022;-69
2023/04/04 08:52:31;;;;;;;3.95;1.55;;;;;;;;;;7387743;19;20365;-69
2023/04/04 08:54:57;;;;;;;3.45;1.58;;;;;;;;;;7383762;19;20130;-70
2023/04/04 08:57:22;;;;;;;3.22;1.30;;;;;;;;;;7389488;19;19991;-69
2023/04/04 08:59:48;;;;;;;3.42;1.75;;;;;;;;;;7390200;19;20035;-68
2023/04/04 09:02:26;;;;;;;3.38;1.38;;;;;;;;;;7391784;19;20471;-69
2023/04/04 09:04:53;;;;;;;2.65;1.63;;;;;;;;;;7390159;19;19995;-70
2023/04/04 09:07:19;;;;;;;4.38;1.90;;;;;;;;;;7389369;19;20005;-70
2023/04/04 09:09:46;;;;;;;3.08;1.63;;;;;;;;;;7391065;19;19998;-69
2023/04/04 09:12:14;;;;;;;4.97;2.25;;;;;;;;;;7359861;19;20057;-70
2023/04/04 09:14:42;;;;;;;5.28;2.00;;;;;;;;;;7386514;19;20362;-69
2023/04/04 09:17:09;;;;;;;5.45;1.80;;;;;;;;;;7389946;19;19995;-70
2023/04/04 09:19:35;;;;;;;4.68;1.80;;;;;;;;;;7389440;19;19999;-68
2023/04/04 09:22:00;;;;;;;3.35;1.85;;;;;;;;;;7390347;19;19994;-69
2023/04/04 09:24:40;;;;;;;3.35;1.63;;;;;;;;;;7388350;19;20416;-69
2023/04/04 09:27:07;;;;;;;5.00;2.40;;;;;;;;;;7389289;19;20065;-68
2023/04/04 09:29:33;;;;;;;2.67;1.70;;;;;;;;;;7389001;19;20010;-68
2023/04/04 09:31:58;;;;;;;4.13;1.92;;;;;;;;;;7390169;19;20023;-69
2023/04/04 09:34:23;;;;;;;6.28;2.53;;;;;;;;;;7386683;19;19986;-70
2023/04/04 09:36:49;;;;;;;6.00;2.20;;;;;;;;;;7387377;19;20014;-70
2023/04/04 09:39:19;;;;;;;4.97;2.45;;;;;;;;;;7388316;19;19999;-70
2023/04/04 09:41:44;;;;;;;6.43;2.15;;;;;;;;;;7388483;19;19994;-71
2023/04/04 09:44:11;;;;;;;4.05;2.03;;;;;;;;;;7390638;19;20352;-71
2023/04/04 09:46:38;;;;;;;7.43;1.90;;;;;;;;;;7388896;19;19990;-70
2023/04/04 09:49:04;;;;;;;4.47;2.10;;;;;;;;;;7387607;19;20516;-70
2023/04/04 09:51:34;;;;;;;5.60;1.90;;;;;;;;;;7388846;19;20110;-70
2023/04/04 09:54:00;;;;;;;3.55;1.58;;;;;;;;;;7389234;19;20535;-69
2023/04/04 09:56:26;;;;;;;4.28;1.90;;;;;;;;;;7387508;19;19999;-69
2023/04/04 09:58:53;;;;;;;4.45;1.65;;;;;;;;;;7386540;19;19987;-68
2023/04/04 10:01:18;;;;;;;3.97;2.15;;;;;;;;;;7384568;19;20074;-68
2023/04/04 10:03:51;;;;;;;4.55;2.03;;;;;;;;;;7388086;19;19994;-68
2023/04/04 10:06:17;;;;;;;4.18;1.90;;;;;;;;;;7392571;19;20552;-68
2023/04/04 10:08:42;;;;;;;3.85;2.28;;;;;;;;;;7392327;19;20022;-68
2023/04/04 10:11:08;;;;;;;5.28;2.17;;;;;;;;;;7388185;19;20058;-69
2023/04/04 10:13:35;;;;;;;4.78;2.10;;;;;;;;;;7389337;19;20409;-68
2023/04/04 10:16:02;;;;;;;4.32;2.20;;;;;;;;;;7384411;19;20524;-69
2023/04/04 10:18:32;;;;;;;5.85;2.55;;;;;;;;;;7388976;19;19995;-67
2023/04/04 10:21:00;;;;;;;4.00;1.77;;;;;;;;;;7389330;19;20005;-69
2023/04/04 10:23:26;;;;;;;5.13;2.20;;;;;;;;;;7390535;19;20002;-70
2023/04/04 10:25:56;;;;;;;4.80;2.20;;;;;;;;;;7395012;19;20006;-69
2023/04/04 10:28:23;;;;;;;3.72;2.08;;;;;;;;;;7393162;19;19994;-69
2023/04/04 10:30:54;;;;;;;3.35;1.80;;;;;;;;;;7390424;19;20007;-68
2023/04/04 10:33:39;;;;;;;3.83;1.80;;;;;;;;;;7394619;19;19999;-67
2023/04/04 10:36:07;;;;;;;4.40;1.90;;;;;;;;;;7394738;19;20006;-68
2023/04/04 10:38:47;;;;;;;3.30;1.98;;;;;;;;;;7393059;19;20269;-68
2023/04/04 10:41:13;;;;;;;4.00;1.85;;;;;;;;;;7395524;19;20022;-68
2023/04/04 10:43:43;;;;;;;2.63;1.73;;;;;;;;;;7393358;19;20161;-67
2023/04/04 10:46:12;;;;;;;2.70;1.67;;;;;;;;;;7395709;19;20074;-67
2023/04/04 10:48:40;;;;;;;6.55;2.10;;;;;;;;;;7392668;19;19998;-67
2023/04/04 10:51:06;;;;;;;3.25;1.60;;;;;;;;;;7393186;19;20089;-68
2023/04/04 10:53:33;;;;;;;5.47;2.70;;;;;;;;;;7393956;19;19999;-67
2023/04/04 10:55:59;;;;;;;6.55;2.17;;;;;;;;;;7392034;19;20464;-67
2023/04/04 10:58:26;;;;;;;5.38;2.25;;;;;;;;;;7392227;19;20495;-67
2023/04/04 11:00:54;;;;;;;4.93;2.28;;;;;;;;;;7390571;19;20002;-67
2023/04/04 11:03:20;;;;;;;7.15;2.50;;;;;;;;;;7393453;19;20002;-68
2023/04/04 11:05:46;;;;;;;6.15;2.05;;;;;;;;;;7394931;19;20001;-67
2023/04/04 11:08:20;;;;;;;4.22;2.17;;;;;;;;;;7395248;19;19994;-68
2023/04/04 11:10:47;;;;;;;4.57;2.03;;;;;;;;;;7388237;19;20083;-68
2023/04/04 11:13:24;;;;;;;4.82;1.90;;;;;;;;;;7393148;19;20006;-68
2023/04/04 11:16:12;;;;;;;8.30;1.95;;;;;;;;;;7391199;19;20084;-68
2023/04/04 11:18:37;;;;;;;5.18;2.15;;;;;;;;;;7389735;19;20005;-68
2023/04/04 11:21:06;;;;;;;9.17;2.60;;;;;;;;;;7392016;19;20336;-68
2023/04/04 11:23:47;;;;;;;3.40;1.65;;;;;;;;;;7393769;19;20257;-68
2023/04/04 11:26:15;;;;;;;5.93;2.33;;;;;;;;;;7395116;19;20099;-67
2023/04/04 11:28:41;;;;;;;3.58;1.95;;;;;;;;;;7391815;19;19999;-68
2023/04/04 11:31:19;;;;;;;6.17;2.17;;;;;;;;;;7392525;19;20026;-68
2023/04/04 11:34:06;;;;;;;5.82;2.47;;;;;;;;;;7393106;19;20262;-68
2023/04/04 11:36:38;;;;;;;4.70;1.85;;;;;;;;;;7391179;19;20408;-68
2023/04/04 11:39:23;;;;;;;2.65;1.65;;;;;;;;;;7388800;19;20531;-68
2023/04/04 11:42:04;;;;;;;3.75;1.98;;;;;;;;;;7389286;19;20007;-69
2023/04/04 11:44:32;;;;;;;5.90;2.00;;;;;;;;;;7389980;19;20412;-68
2023/04/04 11:47:03;;;;;;;4.75;1.80;;;;;;;;;;7391314;19;20002;-68
2023/04/04 11:49:29;;;;;;;;;;;;;;;;;;7392294;19;20440;-68
2023/04/04 11:51:55;;;;;;;5.72;2.42;;;;;;;;;;7392608;19;19938;-69
2023/04/04 11:54:20;;;;;;;7.53;2.58;;;;;;;;;;7389252;19;20017;-67
2023/04/04 11:56:46;;;;;;;6.07;2.22;;;;;;;;;;7390399;19;20345;-67
2023/04/04 11:59:12;;;;;;;4.13;2.40;;;;;;;;;;7390365;19;20015;-68
2023/04/04 12:01:39;;;;;;;3.90;2.10;;;;;;;;;;7390793;19;20010;-68
2023/04/04 12:04:04;;;;;;;4.53;2.15;;;;;;;;;;7392845;19;20003;-68
2023/04/04 12:06:34;;;;;;;3.05;1.70;;;;;;;;;;7389788;19;20530;-68
2023/04/04 12:09:01;;;;;;;9.18;2.30;;;;;;;;;;7390645;19;20006;-68
2023/04/04 12:11:27;;;;;;;3.08;1.90;;;;;;;;;;7390595;19;20364;-68
2023/04/04 12:13:54;;;;;;;3.65;2.20;;;;;;;;;;7390846;19;20126;-69
2023/04/04 12:16:19;;;;;;;5.63;2.25;;;;;;;;;;7392257;19;19998;-68
2023/04/04 12:18:45;;;;;;;4.00;2.22;;;;;;;;;;7390635;19;20508;-68
2023/04/04 12:21:10;;;;;;;4.32;1.85;;;;;;;;;;7390047;19;20471;-68
2023/04/04 12:23:36;;;;;;;4.68;1.95;;;;;;;;;;7391286;19;20010;-68
2023/04/04 12:26:04;;;;;;;6.18;2.28;;;;;;;;;;7392001;19;20110;-68
2023/04/04 12:28:33;;;;;;;8.57;2.17;;;;;;;;;;7388742;19;20484;-69
2023/04/04 12:31:04;;;;;;;3.78;2.10;;;;;;;;;;7387364;19;20006;-68
2023/04/04 12:33:32;;;;;;;;;;;;;;;;;;7390699;19;20321;-69
2023/04/04 12:35:58;;;;;;;3.63;2.10;;;;;;;;;;7387605;19;19914;-69
2023/04/04 12:38:25;;;;;;;2.42;1.70;;;;;;;;;;7311428;19;20029;-68
2023/04/04 12:40:51;;;;;;;4.70;1.95;;;;;;;;;;7386625;19;20003;-69
2023/04/04 12:43:17;;;;;;;8.43;2.20;;;;;;;;;;7388402;19;20021;-69
2023/04/04 12:45:43;;;;;;;3.50;2.00;;;;;;;;;;7388833;19;19994;-68
2023/04/04 12:48:11;;;;;;;3.63;1.92;;;;;;;;;;7390899;19;20410;-69
2023/04/04 12:50:52;;;;;;;4.95;2.15;;;;;;;;;;7386542;19;20017;-69
2023/04/04 12:53:24;;;;;;;;;;;;;;;;;;7388156;19;20002;-69
2023/04/04 12:55:50;;;;;;;7.63;2.25;;;;;;;;;;7384655;19;19940;-69
2023/04/04 12:58:18;;;;;;;5.63;2.35;;;;;;;;;;7387109;19;20553;-69
2023/04/04 13:00:44;;;;;;;1.67;1.33;;;;;;;;;;7382563;19;20022;-69
2023/04/04 13:03:12;;;;;;;6.72;1.92;;;;;;;;;;7386218;19;20332;-70
2023/04/04 13:05:39;;;;;;;4.45;2.22;;;;;;;;;;7386600;19;20337;-69
2023/04/04 13:08:11;;;;;;;3.45;2.03;;;;;;;;;;7388145;19;20373;-69
2023/04/04 13:11:05;;;;;;;3.80;1.98;;;;;;;;;;7386429;19;20365;-69
2023/04/04 13:13:35;;;;;;;6.38;2.08;;;;;;;;;;7388312;19;20062;-68
2023/04/04 13:16:03;;;;;;;4.57;2.10;;;;;;;;;;7388821;19;20432;-68
2023/04/04 13:18:36;;;;;;;4.38;2.00;;;;;;;;;;7388341;19;20002;-68
2023/04/04 13:21:01;;;;;;;5.63;2.17;;;;;;;;;;7387950;19;20028;-68
2023/04/04 13:23:27;;;;;;;6.03;2.15;;;;;;;;;;7387754;19;20003;-68
2023/04/04 13:25:52;;;;;;;4.70;2.10;;;;;;;;;;7390733;19;20001;-68
2023/04/04 13:28:17;;;;;;;4.15;2.05;;;;;;;;;;7391690;19;20428;-68
2023/04/04 13:30:47;;;;;;;3.97;2.10;;;;;;;;;;7385694;19;20361;-68
2023/04/04 13:33:13;;;;;;;5.15;2.28;;;;;;;;;;7388699;19;20032;-68
2023/04/04 13:35:40;;;;;;;6.82;2.53;;;;;;;;;;7387899;19;20400;-68
2023/04/04 13:38:06;;;;;;;4.45;2.28;;;;;;;;;;7390771;19;20336;-70
2023/04/04 13:40:31;;;;;;;6.38;1.90;;;;;;;;;;7385478;19;20090;-69
2023/04/04 13:42:56;;;;;;;5.93;2.13;;;;;;;;;;7394821;19;19999;-70
2023/04/04 13:45:22;;;;;;;3.40;1.65;;;;;;;;;;7395688;19;20076;-70
2023/04/04 13:47:47;;;;;;;3.97;2.25;;;;;;;;;;7397102;19;20006;-69
2023/04/04 13:50:12;;;;;;;3.13;1.85;;;;;;;;;;7395302;19;20010;-70
2023/04/04 13:52:38;;;;;;;2.92;1.77;;;;;;;;;;7395086;19;19999;-70
2023/04/04 13:55:05;;;;;;;3.58;1.98;;;;;;;;;;7393716;19;20010;-69
2023/04/04 13:57:30;;;;;;;5.38;2.00;;;;;;;;;;7396639;19;19999;-69
2023/04/04 13:59:55;;;;;;;4.80;2.10;;;;;;;;;;7388696;19;20533;-68
2023/04/04 14:02:21;;;;;;;5.53;2.20;;;;;;;;;;7393251;19;20011;-68
2023/04/04 14:04:46;;;;;;;4.15;2.17;;;;;;;;;;7394025;19;20081;-68
2023/04/04 14:07:12;;;;;;;5.60;2.20;;;;;;;;;;7394291;19;20069;-68
2023/04/04 14:09:37;;;;;;;6.68;2.60;;;;;;;;;;7395461;19;20336;-68
2023/04/04 14:12:03;;;;;;;4.00;2.15;;;;;;;;;;7393681;19;19991;-69
2023/04/04 14:14:28;;;;;;;5.00;2.17;;;;;;;;;;7394372;19;19999;-69
2023/04/04 14:16:53;;;;;;;5.30;2.45;;;;;;;;;;7387785;19;19998;-69
2023/04/04 14:19:19;;;;;;;4.03;2.40;;;;;;;;;;7386824;19;20105;-69
2023/04/04 14:21:44;;;;;;;4.55;1.95;;;;;;;;;;7388076;19;20456;-69
2023/04/04 14:24:10;;;;;;;3.42;1.95;;;;;;;;;;7389782;19;20119;-69
2023/04/04 14:26:36;;;;;;;6.97;2.38;;;;;;;;;;7388738;19;19999;-69
2023/04/04 14:29:02;;;;;;;5.13;2.25;;;;;;;;;;7386547;19;20090;-69
2023/04/04 14:31:27;;;;;;;6.65;2.30;;;;;;;;;;7391782;19;20023;-68
2023/04/04 14:33:53;;;;;;;4.60;2.30;;;;;;;;;;7392918;19;20356;-68
2023/04/04 14:36:20;;;;;;;4.30;2.55;;;;;;;;;;7393424;19;19995;-68
2023/04/04 14:38:46;;;;;;;3.92;2.20;;;;;;;;;;7392206;19;20449;-69
2023/04/04 14:41:12;;;;;;;3.35;1.83;;;;;;;;;;7393326;19;20015;-69